Terminal Aerodrome Forecast
Issued by NWS

Home | Current Version | Previous Version | Text Only | Print | Product List | Glossary On
Versions: 1 2 3 4 5 6 7 8 9 10 11 12 13
000
FTUS43 KIND 202300
TAFBMG
TAF
KBMG 202320Z 2100/2124 17002KT P6SM SCT200
     FM211500 22010KT P6SM SCT050 BKN150
     FM212200 22008KT P6SM OVC050
      AMD LTD TO CLD VIS AND WIND 2101/2113=

USA.gov is the U.S. government's official web portal to all federal, state and local government web resources and services.